createdAt,value
2022-12-08T00:01:19.884Z,62.63
2022-12-08T00:03:47.263Z,63.55
2022-12-08T00:06:46.202Z,63.57
2022-12-08T00:09:39.661Z,62.96
2022-12-08T00:12:08.502Z,62.84
2022-12-08T00:14:35.701Z,63.45
2022-12-08T00:17:05.944Z,63.47
2022-12-08T00:19:33.643Z,63.53
2022-12-08T00:22:00.740Z,63.63
2022-12-08T00:24:32.182Z,63.65
2022-12-08T00:26:59.141Z,63.30
2022-12-08T00:29:26.133Z,62.70
2022-12-08T00:31:53.523Z,63.13
2022-12-08T00:34:20.869Z,63.35
2022-12-08T00:36:47.878Z,62.34
2022-12-08T00:39:15.934Z,62.52
2022-12-08T00:42:01.797Z,62.01
2022-12-08T00:44:28.832Z,61.58
2022-12-08T00:46:56.688Z,62.16
2022-12-08T00:49:23.848Z,61.66
2022-12-08T00:51:50.779Z,62.68
2022-12-08T00:54:18.261Z,62.91
2022-12-08T00:56:45.316Z,62.22
2022-12-08T00:59:12.410Z,62.24
2022-12-08T01:01:39.591Z,62.16
2022-12-08T01:04:08.892Z,62.31
2022-12-08T01:06:39.396Z,62.62
2022-12-08T01:09:08.562Z,61.59
2022-12-08T01:11:37.038Z,61.61
2022-12-08T01:14:05.377Z,62.06
2022-12-08T01:16:35.847Z,62.78
2022-12-08T01:19:03.883Z,62.36
2022-12-08T01:21:30.781Z,62.54
2022-12-08T01:24:00.322Z,62.83
2022-12-08T01:26:27.658Z,61.92
2022-12-08T01:28:54.778Z,61.95
2022-12-08T01:31:22.663Z,62.49
2022-12-08T01:33:50.215Z,62.51
2022-12-08T01:36:29.482Z,62.08
2022-12-08T01:39:02.183Z,62.02
2022-12-08T01:41:32.717Z,62.66
2022-12-08T01:44:13.646Z,62.07
2022-12-08T01:46:46.069Z,61.36
2022-12-08T01:49:34.942Z,61.94
2022-12-08T01:52:14.398Z,61.33
2022-12-08T01:54:49.598Z,61.86
2022-12-08T01:57:31.207Z,61.21
2022-12-08T02:00:07.817Z,61.47
2022-12-08T02:02:53.020Z,61.29
2022-12-08T02:05:23.351Z,61.89
2022-12-08T02:07:51.774Z,62.04
2022-12-08T02:10:23.785Z,62.18
2022-12-08T02:12:53.592Z,61.26
2022-12-08T02:15:32.791Z,61.65
2022-12-08T02:18:11.627Z,61.39
2022-12-08T02:20:59.983Z,62.29
2022-12-08T02:24:05.697Z,61.79
2022-12-08T02:26:50.844Z,61.29
2022-12-08T02:30:06.058Z,60.89
2022-12-08T02:32:51.285Z,61.03
2022-12-08T02:35:32.235Z,61.92
2022-12-08T02:38:08.735Z,61.51
2022-12-08T02:40:44.760Z,61.01
2022-12-08T02:43:27.977Z,61.31
2022-12-08T02:46:05.744Z,61.22
2022-12-08T02:48:34.636Z,60.48
2022-12-08T02:51:01.656Z,60.52
2022-12-08T02:53:32.232Z,60.27
2022-12-08T02:56:28.587Z,61.03
2022-12-08T02:59:01.683Z,60.15
2022-12-08T03:01:31.538Z,61.02
2022-12-08T03:04:16.968Z,60.67
2022-12-08T03:07:11.004Z,60.05
2022-12-08T03:09:53.005Z,60.54
2022-12-08T03:12:37.370Z,60.09
2022-12-08T03:15:13.289Z,60.42
2022-12-08T03:17:45.640Z,60.31
2022-12-08T03:20:17.612Z,59.94
2022-12-08T03:22:49.335Z,60.41
2022-12-08T03:25:20.947Z,60.48
2022-12-08T03:27:49.206Z,61.18
2022-12-08T03:30:16.465Z,60.84
2022-12-08T03:32:57.960Z,61.12
2022-12-08T03:35:29.800Z,61.01
2022-12-08T03:38:10.968Z,61.99
2022-12-08T03:40:39.335Z,61.91
2022-12-08T03:43:06.405Z,61.26
2022-12-08T03:45:33.404Z,61.76
2022-12-08T03:48:00.515Z,62.10
2022-12-08T03:50:27.533Z,62.01
2022-12-08T03:52:54.667Z,61.94
2022-12-08T03:55:21.666Z,62.18
2022-12-08T03:57:48.559Z,62.86
2022-12-08T04:00:17.061Z,63.53
2022-12-08T04:02:44.198Z,62.42
2022-12-08T04:05:11.317Z,62.87
2022-12-08T04:07:38.269Z,63.18
2022-12-08T04:10:06.181Z,62.56
2022-12-08T04:12:33.507Z,63.43
2022-12-08T04:15:00.380Z,62.92
2022-12-08T04:17:27.522Z,64.01
2022-12-08T04:19:54.492Z,63.30
2022-12-08T04:22:21.461Z,63.21
2022-12-08T04:24:48.644Z,63.50
2022-12-08T04:27:15.625Z,64.09
2022-12-08T04:29:42.582Z,63.61
2022-12-08T04:32:12.058Z,63.06
2022-12-08T04:34:39.127Z,63.57
2022-12-08T04:37:06.174Z,63.57
2022-12-08T04:39:33.114Z,63.63
2022-12-08T04:42:00.167Z,64.77
2022-12-08T04:44:27.073Z,64.97
2022-12-08T04:46:54.272Z,66.03
2022-12-08T04:49:21.327Z,65.23
2022-12-08T04:51:48.285Z,64.92
2022-12-08T04:54:15.327Z,65.48
2022-12-08T04:56:42.373Z,64.50
2022-12-08T04:59:09.547Z,65.34
2022-12-08T05:01:36.705Z,65.31
2022-12-08T05:04:03.730Z,64.54
2022-12-08T05:06:30.840Z,64.85
2022-12-08T05:08:57.851Z,64.74
2022-12-08T05:11:24.890Z,65.16
2022-12-08T05:13:51.963Z,64.84
2022-12-08T05:16:19.112Z,64.90
2022-12-08T05:18:46.021Z,65.64
2022-12-08T05:21:13.117Z,65.90
2022-12-08T05:23:40.155Z,65.50
2022-12-08T05:26:07.439Z,65.66
2022-12-08T05:28:43.083Z,65.59
2022-12-08T05:31:12.794Z,64.47
2022-12-08T05:33:40.347Z,65.14
2022-12-08T05:36:08.721Z,64.90
2022-12-08T05:38:35.927Z,65.53
2022-12-08T05:41:03.503Z,65.10
2022-12-08T05:43:30.612Z,64.42
2022-12-08T05:45:57.561Z,64.73
2022-12-08T05:48:24.741Z,64.41
2022-12-08T05:50:52.549Z,64.09
2022-12-08T05:53:20.636Z,64.73
2022-12-08T05:55:48.342Z,64.44
2022-12-08T05:58:17.713Z,63.75
2022-12-08T06:00:45.399Z,63.04
2022-12-08T06:03:13.533Z,63.80
2022-12-08T06:05:41.663Z,63.46
2022-12-08T06:08:09.380Z,64.42
2022-12-08T06:10:38.400Z,63.70
2022-12-08T06:13:05.556Z,64.50
2022-12-08T06:15:34.931Z,63.63
2022-12-08T06:18:05.094Z,63.65
2022-12-08T06:20:32.469Z,63.56
2022-12-08T06:23:00.085Z,63.77
2022-12-08T06:25:27.043Z,63.11
2022-12-08T06:27:54.078Z,63.14
2022-12-08T06:30:23.195Z,62.85
2022-12-08T06:32:50.355Z,62.76
2022-12-08T06:35:17.464Z,63.31
2022-12-08T06:37:44.410Z,64.26
2022-12-08T06:40:11.749Z,63.36
2022-12-08T06:42:46.917Z,62.82
2022-12-08T06:45:18.181Z,63.98
2022-12-08T06:47:45.274Z,63.30
2022-12-08T06:50:14.010Z,63.85
2022-12-08T06:52:53.250Z,62.84
2022-12-08T06:55:50.955Z,62.87
2022-12-08T06:58:10.584Z,62.54
2022-12-08T07:00:37.748Z,61.30
2022-12-08T07:03:04.770Z,61.56
2022-12-08T07:05:31.911Z,61.69
2022-12-08T07:07:58.892Z,62.40
2022-12-08T07:10:25.888Z,61.53
2022-12-08T07:12:52.956Z,62.00
2022-12-08T07:15:20.098Z,61.96
2022-12-08T07:17:48.304Z,62.35
2022-12-08T07:20:15.770Z,62.44
2022-12-08T07:22:49.085Z,62.46
2022-12-08T07:25:16.748Z,62.62
2022-12-08T07:27:43.794Z,61.96
2022-12-08T07:30:11.020Z,62.17
2022-12-08T07:32:39.212Z,61.98
2022-12-08T07:35:07.670Z,61.34
2022-12-08T07:37:36.027Z,62.30
2022-12-08T07:40:04.725Z,61.90
2022-12-08T07:42:32.115Z,61.81
2022-12-08T07:44:59.329Z,60.91
2022-12-08T07:47:26.626Z,61.37
2022-12-08T07:49:53.726Z,61.38
2022-12-08T07:52:20.867Z,61.01
2022-12-08T07:54:47.954Z,60.92
2022-12-08T07:57:15.248Z,61.55
2022-12-08T07:59:42.264Z,61.27
2022-12-08T08:02:26.926Z,62.64
2022-12-08T08:04:54.206Z,61.72
2022-12-08T08:07:21.320Z,61.91
2022-12-08T08:09:48.385Z,61.17
2022-12-08T08:12:30.720Z,61.70
2022-12-08T08:15:00.367Z,61.70
2022-12-08T08:17:28.413Z,61.71
2022-12-08T08:19:55.582Z,61.29
2022-12-08T08:22:22.624Z,61.55
2022-12-08T08:24:49.715Z,60.64
2022-12-08T08:27:17.973Z,61.35
2022-12-08T08:29:44.896Z,61.08
2022-12-08T08:32:11.964Z,61.36
2022-12-08T08:34:39.184Z,61.10
2022-12-08T08:37:06.154Z,61.44
2022-12-08T08:39:33.212Z,61.23
2022-12-08T08:42:00.185Z,61.46
2022-12-08T08:44:29.087Z,62.19
2022-12-08T08:46:56.073Z,62.04
2022-12-08T08:49:24.626Z,61.55
2022-12-08T08:56:21.944Z,61.36
2022-12-08T08:58:52.095Z,61.67
2022-12-08T09:01:23.676Z,61.82
2022-12-08T09:03:51.206Z,62.03
2022-12-08T09:06:20.031Z,62.29
2022-12-08T09:08:48.100Z,61.96
2022-12-08T09:11:16.365Z,62.76
2022-12-08T09:13:43.327Z,62.52
2022-12-08T09:16:12.033Z,62.85
2022-12-08T09:18:40.812Z,62.41
2022-12-08T09:21:15.094Z,62.57
2022-12-08T09:23:43.982Z,61.71
2022-12-08T09:26:12.225Z,62.29
2022-12-08T09:28:39.130Z,62.72
2022-12-08T09:31:06.395Z,62.33
2022-12-08T09:33:34.225Z,62.98
2022-12-08T09:36:05.436Z,62.69
2022-12-08T09:38:32.995Z,62.54
2022-12-08T09:41:03.219Z,63.15
2022-12-08T09:43:53.450Z,63.15
2022-12-08T09:46:24.496Z,63.23
2022-12-08T09:48:58.365Z,62.74
2022-12-08T09:51:36.103Z,61.95
2022-12-08T09:54:24.284Z,61.94
2022-12-08T09:56:56.398Z,62.23
2022-12-08T09:59:34.494Z,63.37
2022-12-08T10:02:02.917Z,64.57
2022-12-08T10:04:35.889Z,65.19
2022-12-08T10:07:25.123Z,65.23
2022-12-08T10:10:34.145Z,65.52
2022-12-08T10:13:38.145Z,64.45
2022-12-08T10:16:26.717Z,64.75
2022-12-08T10:19:09.558Z,65.59
2022-12-08T10:21:41.092Z,64.99
2022-12-08T10:24:31.568Z,65.24
2022-12-08T10:26:59.266Z,65.46
2022-12-08T10:29:26.245Z,65.87
2022-12-08T10:31:53.312Z,65.85
2022-12-08T10:34:24.403Z,64.79
2022-12-08T10:36:52.657Z,64.63
2022-12-08T10:39:34.635Z,64.81
2022-12-08T10:42:22.386Z,64.02
2022-12-08T10:44:54.992Z,64.66
2022-12-08T10:47:24.160Z,65.00
2022-12-08T10:50:18.387Z,65.09
2022-12-08T10:52:47.203Z,64.54
2022-12-08T10:55:19.860Z,64.35
2022-12-08T10:57:49.173Z,64.74
2022-12-08T11:00:20.268Z,64.65
2022-12-08T11:02:59.612Z,64.20
2022-12-08T11:05:35.924Z,64.29
2022-12-08T11:08:05.884Z,64.88
2022-12-08T11:10:43.861Z,64.49
2022-12-08T11:13:26.768Z,64.81
2022-12-08T11:15:57.516Z,63.82
2022-12-08T11:18:29.549Z,65.06
2022-12-08T11:21:06.754Z,64.26
2022-12-08T11:23:36.682Z,64.07
2022-12-08T11:26:11.663Z,63.81
2022-12-08T11:28:39.307Z,63.86
2022-12-08T11:31:28.081Z,63.37
2022-12-08T11:33:56.021Z,63.35
2022-12-08T11:36:27.312Z,63.87
2022-12-08T11:38:57.841Z,63.48
2022-12-08T11:41:30.958Z,64.48
2022-12-08T11:44:35.459Z,65.27
2022-12-08T11:47:10.740Z,65.19
2022-12-08T11:49:40.344Z,65.25
2022-12-08T11:52:42.301Z,64.93
2022-12-08T11:55:36.983Z,65.20
2022-12-08T11:58:51.921Z,65.82
2022-12-08T12:01:22.589Z,65.54
2022-12-08T12:04:13.941Z,65.37
2022-12-08T12:07:01.059Z,65.39
2022-12-08T12:09:28.142Z,65.28
2022-12-08T12:12:39.312Z,65.26
2022-12-08T12:15:37.272Z,64.66
2022-12-08T12:18:40.395Z,64.70
2022-12-08T12:21:31.983Z,64.69
2022-12-08T12:24:07.978Z,64.77
2022-12-08T12:26:39.265Z,64.75
2022-12-08T12:29:08.485Z,64.21
2022-12-08T12:31:41.587Z,64.04
2022-12-08T12:34:18.432Z,64.49
2022-12-08T12:36:57.659Z,64.56
2022-12-08T12:39:31.439Z,64.51
2022-12-08T12:42:04.530Z,64.06
2022-12-08T12:44:34.682Z,63.76
2022-12-08T12:47:04.128Z,63.64
2022-12-08T12:49:40.576Z,63.28
2022-12-08T12:52:10.529Z,63.53
2022-12-08T12:55:03.949Z,62.86
2022-12-08T12:57:51.601Z,63.61
2022-12-08T13:00:24.593Z,63.42
2022-12-08T13:02:55.009Z,63.37
2022-12-08T13:05:33.436Z,63.29
2022-12-08T13:08:18.498Z,63.40
2022-12-08T13:11:05.144Z,63.45
2022-12-08T13:13:33.601Z,63.48
2022-12-08T13:16:07.598Z,63.25
2022-12-08T13:18:47.654Z,63.30
2022-12-08T13:21:19.181Z,62.76
2022-12-08T13:24:24.890Z,62.78
2022-12-08T13:27:04.059Z,63.72
2022-12-08T13:29:35.778Z,62.75
2022-12-08T13:32:24.236Z,63.25
2022-12-08T13:35:03.224Z,63.30
2022-12-08T13:37:52.329Z,63.63
2022-12-08T13:40:28.282Z,63.73
2022-12-08T13:43:44.630Z,63.59
2022-12-08T13:54:09.873Z,63.30
2022-12-08T13:55:49.540Z,63.20
2022-12-08T13:57:36.978Z,62.90
2022-12-08T14:00:16.076Z,63.53
2022-12-08T14:02:49.938Z,63.64
2022-12-08T14:05:29.710Z,63.92
2022-12-08T14:08:25.098Z,63.38
2022-12-08T14:11:05.351Z,63.17
2022-12-08T14:13:34.165Z,63.04
2022-12-08T14:16:15.933Z,63.62
2022-12-08T14:18:45.706Z,63.10
2022-12-08T14:21:35.966Z,62.89
2022-12-08T14:24:06.246Z,62.56
2022-12-08T14:26:36.695Z,63.03
2022-12-08T14:29:44.433Z,62.48
2022-12-08T14:32:24.422Z,63.07
2022-12-08T14:35:02.375Z,63.39
2022-12-08T14:37:41.343Z,63.03
2022-12-08T14:40:45.454Z,62.59
2022-12-08T14:43:23.459Z,62.14
2022-12-08T14:45:55.056Z,62.04
2022-12-08T14:48:27.938Z,62.05
2022-12-08T14:51:04.017Z,62.19
2022-12-08T14:53:41.121Z,61.88
2022-12-08T14:56:37.262Z,62.12
2022-12-08T14:59:19.427Z,62.30
2022-12-08T15:02:09.052Z,62.56
2022-12-08T15:04:46.342Z,62.41
2022-12-08T15:07:17.432Z,62.08
2022-12-08T15:09:50.703Z,61.53
2022-12-08T15:12:40.223Z,61.67
2022-12-08T15:15:09.887Z,61.16
2022-12-08T15:18:04.854Z,60.92
2022-12-08T15:20:52.408Z,60.71
2022-12-08T15:23:24.215Z,60.80
2022-12-08T15:25:56.473Z,60.43
2022-12-08T15:28:30.712Z,60.92
2022-12-08T15:31:01.619Z,60.27
2022-12-08T15:33:34.042Z,60.27
2022-12-08T15:36:10.040Z,59.62
2022-12-08T15:38:42.498Z,59.85
2022-12-08T15:41:15.095Z,59.61
2022-12-08T15:43:56.253Z,60.03
2022-12-08T15:46:27.743Z,59.41
2022-12-08T15:48:58.201Z,59.75
2022-12-08T15:51:37.355Z,59.44
2022-12-08T15:54:04.525Z,60.19
2022-12-08T15:56:34.228Z,60.69
2022-12-08T15:59:07.268Z,59.91
2022-12-08T16:01:37.186Z,60.39
2022-12-08T16:05:11.505Z,60.53
2022-12-08T16:07:21.349Z,60.37
2022-12-08T16:10:06.504Z,60.09
2022-12-08T16:13:54.709Z,60.30
2022-12-08T16:15:59.262Z,60.95
2022-12-08T16:18:35.153Z,61.73
2022-12-08T16:21:16.949Z,61.25
2022-12-08T16:23:54.027Z,61.27
2022-12-08T16:29:20.258Z,61.93
2022-12-08T16:31:48.192Z,61.68
2022-12-08T16:34:16.244Z,61.73
2022-12-08T16:36:45.859Z,61.87
2022-12-08T16:39:14.266Z,61.28
2022-12-08T16:42:00.039Z,61.47
2022-12-08T16:44:39.682Z,61.50
2022-12-08T16:47:10.580Z,61.55
2022-12-08T16:49:39.317Z,61.75
2022-12-08T16:52:08.575Z,62.03
2022-12-08T16:54:35.802Z,62.27
2022-12-08T16:57:03.195Z,62.38
2022-12-08T16:59:31.217Z,62.54
2022-12-08T17:01:58.230Z,61.63
2022-12-08T17:04:32.668Z,61.88
2022-12-08T17:06:59.681Z,61.82
2022-12-08T17:09:28.653Z,61.72
2022-12-08T17:12:01.897Z,62.04
2022-12-08T17:14:35.814Z,61.75
2022-12-08T17:17:04.201Z,62.13
2022-12-08T17:19:36.432Z,62.22
2022-12-08T17:22:04.016Z,61.78
2022-12-08T17:24:35.170Z,61.49
2022-12-08T17:27:06.646Z,62.00
2022-12-08T17:29:39.187Z,62.15
2022-12-08T17:32:09.794Z,61.87
2022-12-08T17:34:40.678Z,62.14
2022-12-08T17:37:09.728Z,61.72
2022-12-08T17:39:42.526Z,62.52
2022-12-08T17:42:10.334Z,61.61
2022-12-08T17:44:37.743Z,62.13
2022-12-08T17:47:06.340Z,61.50
2022-12-08T17:49:36.707Z,61.42
2022-12-08T17:52:07.030Z,62.00
2022-12-08T17:54:34.396Z,62.43
2022-12-08T17:57:04.236Z,63.12
2022-12-08T17:59:31.864Z,62.78
2022-12-08T18:02:00.045Z,62.66
2022-12-08T18:04:28.740Z,62.92
2022-12-08T18:06:58.458Z,63.09
2022-12-08T18:09:25.882Z,63.29
2022-12-08T18:11:53.409Z,63.46
2022-12-08T18:14:20.574Z,63.76
2022-12-08T18:16:48.290Z,63.89
2022-12-08T18:19:16.262Z,63.98
2022-12-08T18:21:43.880Z,63.82
2022-12-08T18:24:21.246Z,64.40
2022-12-08T18:26:55.410Z,64.22
2022-12-08T18:29:23.066Z,64.57
2022-12-08T18:31:51.471Z,65.32
2022-12-08T18:34:19.284Z,65.20
2022-12-08T18:36:47.124Z,64.74
2022-12-08T18:39:23.054Z,65.28
2022-12-08T18:41:50.703Z,65.02
2022-12-08T18:44:18.042Z,64.79
2022-12-08T18:46:45.376Z,64.71
2022-12-08T18:49:14.321Z,65.00
2022-12-08T18:51:42.126Z,65.39
2022-12-08T18:54:09.997Z,65.46
2022-12-08T18:56:37.713Z,65.07
2022-12-08T18:59:08.232Z,65.40
2022-12-08T19:01:37.824Z,65.29
2022-12-08T19:06:56.512Z,64.53
2022-12-08T19:09:25.708Z,63.83
2022-12-08T19:11:52.971Z,64.56
2022-12-08T19:14:25.756Z,64.47
2022-12-08T19:16:54.956Z,64.79
2022-12-08T19:19:21.969Z,64.82
2022-12-08T19:21:49.068Z,64.02
2022-12-08T19:24:18.419Z,64.41
2022-12-08T19:26:48.121Z,64.61
2022-12-08T19:29:15.880Z,64.13
2022-12-08T19:31:43.584Z,63.84
2022-12-08T19:34:14.962Z,64.01
2022-12-08T19:36:45.988Z,63.76
2022-12-08T19:39:41.009Z,64.38
2022-12-08T19:42:38.236Z,63.80
2022-12-08T19:45:14.655Z,64.24
2022-12-08T19:47:44.409Z,63.95
2022-12-08T19:50:32.498Z,64.02
2022-12-08T19:52:59.645Z,64.21
2022-12-08T19:55:27.688Z,64.06
2022-12-08T19:57:56.857Z,64.51
2022-12-08T20:00:24.321Z,64.82
2022-12-08T20:02:51.688Z,64.50
2022-12-08T20:05:21.946Z,64.76
2022-12-08T20:07:55.694Z,65.13
2022-12-08T20:10:29.740Z,64.89
2022-12-08T20:13:17.346Z,65.04
2022-12-08T20:15:45.071Z,65.27
2022-12-08T20:18:13.577Z,64.91
2022-12-08T20:20:41.531Z,65.21
2022-12-08T20:23:09.212Z,64.70
2022-12-08T20:25:41.130Z,64.94
2022-12-08T20:28:08.686Z,64.89
2022-12-08T20:30:38.397Z,64.64
2022-12-08T20:33:05.292Z,64.39
2022-12-08T20:35:32.386Z,64.26
2022-12-08T20:37:59.424Z,64.62
2022-12-08T20:40:26.462Z,64.18
2022-12-08T20:42:53.448Z,64.15
2022-12-08T20:45:20.412Z,64.09
2022-12-08T20:47:47.514Z,64.08
2022-12-08T20:50:14.721Z,64.09
2022-12-08T20:52:43.975Z,63.94
2022-12-08T20:55:11.162Z,64.25
2022-12-08T20:57:39.591Z,64.68
2022-12-08T21:00:08.003Z,64.43
2022-12-08T21:02:35.497Z,64.70
2022-12-08T21:05:02.787Z,64.25
2022-12-08T21:07:30.840Z,65.12
2022-12-08T21:09:58.051Z,65.12
2022-12-08T21:12:25.341Z,64.99
2022-12-08T21:14:52.808Z,64.76
2022-12-08T21:17:19.979Z,65.11
2022-12-08T21:19:47.126Z,64.57
2022-12-08T21:22:14.365Z,64.55
2022-12-08T21:24:41.532Z,63.65
2022-12-08T21:27:09.024Z,64.65
2022-12-08T21:29:36.202Z,65.23
2022-12-08T21:32:03.997Z,64.85
2022-12-08T21:34:32.046Z,64.91
2022-12-08T21:36:59.165Z,65.05
2022-12-08T21:39:27.063Z,65.08
2022-12-08T21:42:13.097Z,65.27
2022-12-08T21:44:40.473Z,65.96
2022-12-08T21:47:08.075Z,65.89
2022-12-08T21:49:35.319Z,65.29
2022-12-08T21:52:02.315Z,66.02
2022-12-08T21:54:29.319Z,66.05
2022-12-08T22:57:54.245Z,64.53
2022-12-08T23:00:21.270Z,64.44
2022-12-08T23:02:48.591Z,64.16
2022-12-08T23:05:16.413Z,63.82
2022-12-08T23:07:44.041Z,64.07
2022-12-08T23:10:11.600Z,63.79
2022-12-08T23:12:39.800Z,63.71
2022-12-08T23:15:07.326Z,63.65
2022-12-08T23:17:34.755Z,64.93
2022-12-08T23:20:02.269Z,64.62
2022-12-08T23:22:30.364Z,64.45
2022-12-08T23:24:57.565Z,64.41
2022-12-08T23:27:24.579Z,63.76
2022-12-08T23:29:51.880Z,63.47
2022-12-08T23:32:19.190Z,64.38
2022-12-08T23:34:47.008Z,63.88
2022-12-08T23:37:14.357Z,63.63
2022-12-08T23:39:41.652Z,63.70
2022-12-08T23:42:08.754Z,63.68
2022-12-08T23:44:35.774Z,63.88
2022-12-08T23:47:02.782Z,63.78
2022-12-08T23:49:29.895Z,63.73
2022-12-08T23:51:56.900Z,63.32
2022-12-08T23:54:23.899Z,63.44
2022-12-08T23:56:51.079Z,64.13
2022-12-08T23:59:18.248Z,63.83
